createdAt,value
2023-05-03T00:03:33.160Z,8.02
2023-05-03T00:07:50.866Z,8.45
2023-05-03T00:12:08.643Z,10.43
2023-05-03T00:16:26.350Z,9.82
2023-05-03T00:20:44.047Z,8.45
2023-05-03T00:25:01.231Z,7.88
2023-05-03T00:29:21.475Z,8.95
2023-05-03T00:33:39.982Z,7.15
2023-05-03T00:37:57.658Z,10.40
2023-05-03T00:42:15.320Z,7.53
2023-05-03T00:46:33.112Z,6.57
2023-05-03T00:50:50.986Z,8.23
2023-05-03T00:55:10.566Z,8.18
2023-05-03T00:59:29.176Z,7.47
2023-05-03T01:03:48.231Z,10.20
2023-05-03T01:08:56.517Z,10.18
2023-05-03T01:13:44.107Z,8.70
2023-05-03T01:18:34.935Z,9.35
2023-05-03T01:23:22.549Z,9.07
2023-05-03T01:27:41.914Z,9.07
2023-05-03T01:32:07.518Z,8.45
2023-05-03T01:36:34.067Z,7.82
2023-05-03T01:40:55.899Z,6.43
2023-05-03T01:45:13.901Z,9.07
2023-05-03T01:49:31.438Z,8.93
2023-05-03T01:53:49.077Z,7.88
2023-05-03T01:58:06.741Z,8.45
2023-05-03T02:02:24.750Z,10.15
2023-05-03T02:06:42.691Z,6.60
2023-05-03T02:11:00.441Z,7.50
2023-05-03T02:15:20.399Z,7.93
2023-05-03T02:19:38.092Z,8.25
2023-05-03T02:23:56.218Z,11.13
2023-05-03T02:32:31.620Z,8.57
2023-05-03T02:36:49.331Z,10.70
2023-05-03T02:41:06.874Z,10.80
2023-05-03T02:45:24.774Z,12.50
2023-05-03T02:49:42.299Z,8.35
2023-05-03T02:54:00.183Z,12.20
2023-05-03T02:58:17.750Z,12.23
2023-05-03T03:02:37.250Z,11.43
2023-05-03T03:11:13.026Z,9.45
2023-05-03T03:15:30.813Z,9.50
2023-05-03T03:19:48.663Z,7.95
2023-05-03T03:24:07.007Z,8.23
2023-05-03T03:28:24.821Z,8.25
2023-05-03T03:32:42.641Z,9.20
2023-05-03T03:37:00.354Z,8.63
2023-05-03T03:41:19.604Z,8.63
2023-05-03T03:45:37.382Z,11.77
2023-05-03T03:49:54.974Z,9.40
2023-05-03T03:54:12.641Z,11.73
2023-05-03T03:58:30.245Z,10.52
2023-05-03T04:02:48.031Z,9.88
2023-05-03T04:07:05.780Z,10.77
2023-05-03T04:11:24.016Z,11.48
2023-05-03T04:19:59.363Z,9.50
2023-05-03T04:24:17.610Z,6.22
2023-05-03T04:28:35.418Z,6.38
2023-05-03T04:32:55.674Z,5.35
2023-05-03T04:37:13.912Z,5.80
2023-05-03T04:41:31.501Z,6.88
2023-05-03T04:45:49.177Z,5.25
2023-05-03T04:50:11.377Z,8.95
2023-05-03T04:54:29.346Z,4.80
2023-05-03T04:58:47.002Z,4.03
2023-05-03T05:03:06.624Z,5.03
2023-05-03T05:07:24.392Z,3.67
2023-05-03T05:11:42.045Z,4.95
2023-05-03T05:15:59.620Z,3.53
2023-05-03T05:20:18.843Z,4.95
2023-05-03T05:24:36.790Z,5.82
2023-05-03T05:28:54.750Z,3.60
2023-05-03T05:33:12.362Z,5.00
2023-05-03T05:37:30.418Z,5.70
2023-05-03T05:41:47.969Z,3.35
2023-05-03T05:46:05.698Z,5.22
2023-05-03T05:50:23.266Z,4.28
2023-05-03T05:54:40.726Z,4.00
2023-05-03T05:58:58.251Z,3.65
2023-05-03T06:03:16.520Z,6.68
2023-05-03T06:07:36.224Z,5.68
2023-05-03T06:11:53.838Z,4.22
2023-05-03T06:16:12.115Z,6.20
2023-05-03T06:20:29.727Z,6.10
2023-05-03T06:24:47.608Z,5.72
2023-05-03T06:29:05.437Z,6.35
2023-05-03T06:33:23.062Z,15.60
2023-05-03T06:37:40.847Z,11.88
2023-05-03T06:41:58.375Z,13.90
2023-05-03T06:46:19.556Z,6.90
2023-05-03T06:50:37.952Z,10.60
2023-05-03T06:54:55.689Z,32.72
2023-05-03T06:59:13.240Z,5.30
2023-05-03T07:03:31.398Z,37.38
2023-05-03T07:07:49.080Z,30.15
2023-05-03T07:12:07.119Z,19.65
2023-05-03T07:20:43.597Z,8.65
2023-05-03T07:25:01.170Z,7.97
2023-05-03T07:29:18.886Z,7.82
2023-05-03T07:33:37.900Z,2.83
2023-05-03T07:37:57.053Z,4.18
2023-05-03T07:42:14.733Z,5.15
2023-05-03T07:46:35.544Z,6.70
2023-05-03T07:50:53.302Z,8.10
2023-05-03T07:55:11.354Z,6.70
2023-05-03T07:59:28.869Z,5.03
2023-05-03T08:03:47.023Z,6.65
2023-05-03T08:08:05.771Z,2.58
2023-05-03T08:12:24.261Z,4.97
2023-05-03T08:16:42.000Z,6.70
2023-05-03T08:21:00.221Z,12.90
2023-05-03T08:25:17.941Z,7.82
2023-05-03T08:29:39.566Z,6.60
2023-05-03T08:33:57.302Z,8.25
2023-05-03T08:38:15.913Z,5.85
2023-05-03T08:42:33.992Z,4.00
2023-05-03T08:46:51.907Z,5.45
2023-05-03T08:51:11.469Z,5.00
2023-05-03T08:55:30.027Z,4.30
2023-05-03T08:59:54.410Z,4.35
2023-05-03T09:04:12.893Z,7.32
2023-05-03T09:08:31.715Z,5.15
2023-05-03T09:17:20.582Z,8.68
2023-05-03T09:21:43.685Z,4.75
2023-05-03T09:26:00.951Z,10.13
2023-05-03T09:30:19.890Z,3.17
2023-05-03T09:34:37.771Z,4.97
2023-05-03T09:38:56.350Z,3.20
2023-05-03T09:43:18.718Z,10.95
2023-05-03T09:47:52.811Z,5.72
2023-05-03T09:52:11.370Z,4.93
2023-05-03T09:56:30.399Z,11.32
2023-05-03T10:00:52.243Z,9.07
2023-05-03T10:05:14.737Z,10.70
2023-05-03T10:09:40.127Z,4.57
2023-05-03T10:13:58.345Z,6.88
2023-05-03T10:18:18.800Z,5.35
2023-05-03T10:23:04.482Z,6.25
2023-05-03T10:27:22.027Z,5.30
2023-05-03T10:31:48.376Z,10.95
2023-05-03T10:36:10.928Z,7.55
2023-05-03T10:40:43.450Z,3.97
2023-05-03T10:45:03.938Z,5.82
2023-05-03T10:49:24.536Z,3.50
2023-05-03T10:53:43.632Z,8.32
2023-05-03T10:58:03.882Z,9.82
2023-05-03T11:02:31.610Z,20.02
2023-05-03T11:06:52.257Z,6.05
2023-05-03T11:11:10.195Z,5.97
2023-05-03T11:15:28.267Z,5.68
2023-05-03T11:19:47.118Z,10.15
2023-05-03T11:24:05.026Z,6.13
2023-05-03T11:28:23.358Z,5.25
2023-05-03T11:32:43.311Z,9.40
2023-05-03T11:37:02.847Z,9.40
2023-05-03T11:41:20.755Z,6.63
2023-05-03T11:45:45.772Z,5.05
2023-05-03T11:50:04.356Z,9.20
2023-05-03T11:54:26.342Z,8.43
2023-05-03T11:58:59.125Z,5.15
2023-05-03T12:03:32.283Z,5.25
2023-05-03T12:07:52.050Z,8.18
2023-05-03T12:12:13.324Z,8.93
2023-05-03T12:16:50.899Z,21.23
2023-05-03T12:21:30.829Z,11.57
2023-05-03T12:25:49.159Z,6.15
2023-05-03T12:30:11.024Z,4.40
2023-05-03T12:34:34.952Z,6.28
2023-05-03T12:38:56.385Z,6.65
2023-05-03T12:43:14.749Z,5.55
2023-05-03T12:52:23.644Z,5.57
2023-05-03T12:56:33.844Z,5.82
2023-05-03T13:01:28.112Z,6.93
2023-05-03T13:14:17.071Z,7.53
2023-05-03T13:18:34.793Z,9.68
2023-05-03T13:22:52.534Z,5.45
2023-05-03T13:27:13.095Z,5.67
2023-05-03T13:31:31.387Z,3.90
2023-05-03T13:35:49.105Z,6.70
2023-05-03T13:40:08.162Z,7.72
2023-05-03T13:44:26.325Z,6.45
2023-05-03T13:48:44.320Z,4.63
2023-05-03T13:53:02.108Z,5.85
2023-05-03T13:57:19.933Z,6.15
2023-05-03T14:01:38.232Z,5.95
2023-05-03T14:05:56.244Z,6.50
2023-05-03T14:10:14.015Z,7.82
2023-05-03T14:18:51.237Z,4.63
2023-05-03T14:23:09.012Z,8.75
2023-05-03T14:27:26.932Z,4.63
2023-05-03T14:31:44.753Z,4.38
2023-05-03T14:36:03.531Z,5.05
2023-05-03T14:40:22.035Z,3.58
2023-05-03T14:44:39.738Z,6.00
2023-05-03T14:48:57.606Z,5.65
2023-05-03T14:53:15.433Z,3.17
2023-05-03T14:57:34.266Z,6.05
2023-05-03T15:01:52.722Z,3.38
2023-05-03T15:06:10.539Z,5.13
2023-05-03T15:10:28.163Z,5.50
2023-05-03T15:14:47.654Z,3.88
2023-05-03T15:19:07.564Z,5.47
2023-05-03T15:23:25.195Z,3.53
2023-05-03T15:32:01.862Z,8.43
2023-05-03T15:36:19.562Z,6.15
2023-05-03T15:40:37.392Z,3.83
2023-05-03T15:44:55.049Z,5.60
2023-05-03T15:49:12.774Z,8.93
2023-05-03T15:53:30.432Z,5.40
2023-05-03T15:57:48.285Z,7.82
2023-05-03T16:02:09.483Z,6.28
2023-05-03T16:06:28.779Z,4.00
2023-05-03T16:10:46.538Z,10.40
2023-05-03T16:15:05.548Z,11.05
2023-05-03T16:19:25.693Z,14.60
2023-05-03T16:23:43.431Z,11.23
2023-05-03T16:32:20.081Z,11.63
2023-05-03T16:36:42.951Z,20.20
2023-05-03T16:41:02.274Z,9.73
2023-05-03T16:45:27.168Z,6.03
2023-05-03T16:49:45.087Z,13.38
2023-05-03T16:54:04.568Z,6.15
2023-05-03T16:58:22.422Z,5.90
2023-05-03T17:02:41.471Z,5.35
2023-05-03T17:06:58.646Z,9.93
2023-05-03T17:11:16.504Z,5.53
2023-05-03T17:15:34.737Z,6.70
2023-05-03T17:19:52.679Z,31.90
2023-05-03T17:24:11.838Z,5.72
2023-05-03T17:28:29.943Z,7.20
2023-05-03T17:32:47.683Z,5.72
2023-05-03T17:37:05.842Z,8.82
2023-05-03T17:41:23.665Z,9.20
2023-05-03T17:45:44.614Z,5.22
2023-05-03T17:50:02.514Z,11.35
2023-05-03T17:54:20.766Z,24.67
2023-05-03T17:58:38.553Z,26.23
2023-05-03T18:02:56.519Z,11.95
2023-05-03T18:07:14.403Z,8.70
2023-05-03T18:11:32.498Z,10.00
2023-05-03T18:15:50.857Z,12.75
2023-05-03T18:24:27.511Z,39.08
2023-05-03T18:28:45.090Z,45.58
2023-05-03T18:33:02.985Z,22.08
2023-05-03T18:37:24.732Z,23.48
2023-05-03T18:41:43.091Z,41.15
2023-05-03T18:50:20.660Z,23.30
2023-05-03T18:54:38.302Z,20.38
2023-05-03T18:58:57.136Z,19.45
2023-05-03T19:03:14.903Z,21.60
2023-05-03T19:07:32.624Z,30.73
2023-05-03T19:11:50.682Z,27.75
2023-05-03T19:16:08.526Z,40.10
2023-05-03T19:20:26.650Z,37.80
2023-05-03T19:24:44.127Z,41.35
2023-05-03T19:29:01.777Z,26.67
2023-05-03T19:33:20.580Z,22.00
2023-05-03T19:37:38.593Z,21.10
2023-05-03T19:41:56.777Z,22.55
2023-05-03T19:46:16.676Z,23.95
2023-05-03T19:50:36.260Z,20.17
2023-05-03T19:54:55.609Z,22.13
2023-05-03T19:59:13.232Z,15.85
2023-05-03T20:03:33.411Z,14.73
2023-05-03T20:07:52.842Z,13.02
2023-05-03T20:12:12.351Z,13.52
2023-05-03T20:16:33.485Z,14.88
2023-05-03T20:20:51.425Z,16.83
2023-05-03T20:25:09.745Z,12.02
2023-05-03T20:29:27.709Z,14.27
2023-05-03T20:38:03.395Z,18.35
2023-05-03T20:42:21.047Z,17.38
2023-05-03T20:46:39.319Z,20.33
2023-05-03T20:50:59.201Z,88.40
2023-05-03T20:55:17.123Z,42.80
2023-05-03T20:59:35.637Z,63.03
2023-05-03T21:03:53.354Z,47.17
2023-05-03T21:08:11.219Z,32.00
2023-05-03T21:12:29.263Z,20.60
2023-05-03T21:16:47.381Z,16.83
2023-05-03T21:21:05.078Z,17.48
2023-05-03T21:25:26.029Z,21.40
2023-05-03T21:29:49.153Z,23.25
2023-05-03T21:34:07.467Z,16.70
2023-05-03T21:38:25.346Z,19.00
2023-05-03T21:42:43.756Z,16.27
2023-05-03T21:47:02.231Z,9.85
2023-05-03T21:51:23.255Z,10.65
2023-05-03T21:55:40.922Z,13.05
2023-05-03T21:59:58.606Z,18.02
2023-05-03T22:04:16.365Z,18.25
2023-05-03T22:08:34.465Z,9.95
2023-05-03T22:12:52.258Z,14.50
2023-05-03T22:17:09.916Z,13.45
2023-05-03T22:21:27.899Z,19.20
2023-05-03T22:30:03.920Z,12.02
2023-05-03T22:34:21.959Z,11.63
2023-05-03T22:38:42.004Z,9.00
2023-05-03T22:42:59.628Z,5.38
2023-05-03T22:47:17.266Z,10.27
2023-05-03T22:51:35.109Z,9.35
2023-05-03T22:56:09.596Z,9.98
2023-05-03T23:00:27.411Z,10.00
2023-05-03T23:04:44.989Z,14.38
2023-05-03T23:09:02.695Z,12.10
2023-05-03T23:13:20.304Z,11.73
2023-05-03T23:17:38.292Z,7.38
2023-05-03T23:21:55.997Z,15.50
2023-05-03T23:26:13.598Z,17.00
2023-05-03T23:34:50.285Z,14.93
2023-05-03T23:39:08.556Z,18.08
2023-05-03T23:47:46.745Z,18.70
2023-05-03T23:52:04.563Z,25.58
2023-05-03T23:56:22.732Z,17.25
